Terminal Aerodrome Forecast
Issued by NWS Burlington, VT

Home | Current Version | Previous Version | Text Only | Print | Product List | Glossary On
Versions: 1 2 3 4 5 6 7 8 9 10 11 12 13 14 15 16 17 18 19 20 21 22 23 24 25 26 27 28 29 30 31 32 33 34
000
FTUS41 KBTV 190531
TAFBTV
TAF
KBTV 190531Z 1906/2006 35011KT P6SM BKN040
      TEMPO 1906/1907 4SM -SN BKN025
     FM190900 36008KT P6SM BKN150
     FM191300 36006KT P6SM OVC100
     FM192000 36005KT P6SM VCSH OVC045
     FM192200 36005KT P6SM -SHSN OVC028
     FM200000 VRB04KT 1 1/2SM -SN BR OVC022=

USA.gov is the U.S. government's official web portal to all federal, state and local government web resources and services.